PAWGPAPG

Guest
Details From PAWG - Wrangell
To PAPG - Petersburg James A Johnson
Flight Number -
Tags Routegen Generated
Created
Modified
Stats Distance 30 nm / 55 km
Max Altitude 100 ft / 30 m
Waypoints 5
Social Downloads 4
Likes 0
Share VATSIM

Download

Looking for another format? Having issues loading an existing format? Contact us
Advertisement - Login to hide

Notes

Departing runway 30 PAWG. Arriving runway 7 PAPG.

Route

PAWG +56.53_-132.49 +56.68_-132.65 +56.83_-132.81 PAPG

ID Type Via Altitude Latitude Longitude Leg Dist Tot Dist Heading (true) Name
O PAWG APT - 0 ft / 0 m 56.48860˚ -132.38250˚ - 0 nm - -
+56.53_-132.49 LATLON - 100 ft / 30 m 56.52631˚ -132.49443˚ 4 nm 4 nm 301° / 301° -
+56.68_-132.65 LATLON - 100 ft / 30 m 56.67724˚ -132.65037˚ 10 nm 14 nm 330° / 330° -
+56.83_-132.81 LATLON - 100 ft / 30 m 56.82818˚ -132.80631˚ 10 nm 25 nm 331° / 330° -
O PAPG APT - 0 ft / 0 m 56.80436˚ -132.93116˚ 4 nm 29 nm 251° / 251° -

Altitude Profile

Advertisement - Login to hide

PAWG

Details ICAO PAWG (WRG)
Name WRANGELL
Region USA (Alaska)
Timezone America/Juneau (UTC-8.0)
Stats Elevation 44 ft / 13 m (AMSL)
Location 56.484324° -132.369832°
Runways 1
Magnetic Variation 18.698° E

METAR

PAWG 201956Z 17009KT 10SM BKN040 OVC050 14/05 A2991

Decode

TAF

PAWG 201726Z 2018/2118 13005KT P6SM VCSH BKN040 OVC060 FM210000 12009KT 6SM -RA BR OVC040 FM210900 12013KT 5SM -RA BR SCT025 OVC035 WS020/15035KT AMD LTD TO CLD VIS AND WIND 2106/2115

Decode

Departure Runways

ID Width Length Bearing (true) Bearing (mag) Surface Threshold Offset Overrun Length
10 150 ft / 46 m 5,983 ft / 1,824 m 121.43° 102.73° Asphalt 0 ft / 0 m 0 ft / 0 m
28 150 ft / 46 m 5,983 ft / 1,824 m 301.45° 282.75° Asphalt 0 ft / 0 m 0 ft / 0 m

PAPG

Details ICAO PAPG (PSG)
Name PETERSBURG JAMES A JOHNSON
Region USA (Alaska)
Timezone America/Juneau (UTC-8.0)
Stats Elevation 105 ft / 32 m (AMSL)
Location 56.801651° -132.945289°
Runways 1
Magnetic Variation 18.753° E

METAR

PAPG 201956Z 26006KT 10SM BKN035 BKN050 13/07 A2989 RMK AO2 SLP126 T01330067

Decode

TAF

PAPG 201731Z 2018/2118 09010KT P6SM -DZ FEW008 SCT035 BKN050 FM210000 11006KT 6SM -RA BR OVC030 AMD LTD TO CLD VIS AND WIND 2106/2115

Decode

Destination Runways

ID Width Length Bearing (true) Bearing (mag) Surface Threshold Offset Overrun Length
04 150 ft / 46 m 5,982 ft / 1,823 m 70.70° 51.95° Asphalt 0 ft / 0 m 0 ft / 0 m
22 150 ft / 46 m 5,982 ft / 1,823 m 250.73° 231.98° Asphalt 0 ft / 0 m 0 ft / 0 m

Approach Navaids

Runway Type Ident Frequency Range Bearing (true) Bearing (mag) Slope Elevation
22 Localiser IPSG 110.50 MHz 18 nm / 33 km 185.00° 166.25° - 151 ft / 46 m (AMSL)
22 DME IPSG 110.50 MHz 18 nm / 33 km - - - 164 ft / 50 m (AMSL)

Popular Alternatives